Terminal Aerodrome Forecast
Issued by NWS Topeka, KS

Home | Current Version | Previous Version | Text Only | Print | Product List | Glossary On
Versions: 1 2 3 4 5 6 7 8 9 10 11 12 13 14 15 16 17 18 19 20 21 22 23 24 25 26 27 28 29
000
FTUS43 KTOP 240800 AAA
TAFTOP
TAF AMD
KTOP 240854Z 2409/2506 08012KT P6SM BKN035 BKN100
     FM241000 09013KT 5SM SHRA BR VCTS OVC020CB
     FM241200 10010KT 3SM -DZ BR OVC009
     FM242000 27010KT 6SM BR BKN020
     FM250000 29008KT P6SM SKC=

USA.gov is the U.S. government's official web portal to all federal, state and local government web resources and services.